sensor_id;sensor_type;location;lat;lon;timestamp;temperature;humidity
33645;DHT22;19986;48.190;16.366;2022-09-09T00:03:50;19.70;99.90
33645;DHT22;19986;48.190;16.366;2022-09-09T00:06:24;19.80;99.90
33645;DHT22;19986;48.190;16.366;2022-09-09T00:09:12;19.70;99.90
33645;DHT22;19986;48.190;16.366;2022-09-09T00:14:56;19.70;99.90
33645;DHT22;19986;48.190;16.366;2022-09-09T00:17:39;19.70;99.90
33645;DHT22;19986;48.190;16.366;2022-09-09T00:20:12;19.60;99.90
33645;DHT22;19986;48.190;16.366;2022-09-09T00:22:50;19.60;99.90
33645;DHT22;19986;48.190;16.366;2022-09-09T00:25:46;19.50;99.90
33645;DHT22;19986;48.190;16.366;2022-09-09T00:28:29;19.50;99.90
33645;DHT22;19986;48.190;16.366;2022-09-09T00:31:11;19.50;99.90
33645;DHT22;19986;48.190;16.366;2022-09-09T00:33:38;19.50;99.90
33645;DHT22;19986;48.190;16.366;2022-09-09T00:36:12;19.40;99.90
33645;DHT22;19986;48.190;16.366;2022-09-09T00:38:46;19.40;99.90
33645;DHT22;19986;48.190;16.366;2022-09-09T00:55:58;19.30;99.90
33645;DHT22;19986;48.190;16.366;2022-09-09T00:58:26;19.30;99.90
33645;DHT22;19986;48.190;16.366;2022-09-09T01:00:57;19.20;99.90
33645;DHT22;19986;48.190;16.366;2022-09-09T01:17:17;19.20;99.90
33645;DHT22;19986;48.190;16.366;2022-09-09T01:27:40;19.20;99.90
33645;DHT22;19986;48.190;16.366;2022-09-09T01:30:12;19.10;99.90
33645;DHT22;19986;48.190;16.366;2022-09-09T01:32:47;19.10;99.90
33645;DHT22;19986;48.190;16.366;2022-09-09T01:38:17;19.10;99.90
33645;DHT22;19986;48.190;16.366;2022-09-09T01:40:45;19.10;99.90
33645;DHT22;19986;48.190;16.366;2022-09-09T01:43:11;19.10;99.90
33645;DHT22;19986;48.190;16.366;2022-09-09T01:45:39;19.10;99.90
33645;DHT22;19986;48.190;16.366;2022-09-09T01:48:07;19.00;99.90
33645;DHT22;19986;48.190;16.366;2022-09-09T01:50:33;19.10;99.90
33645;DHT22;19986;48.190;16.366;2022-09-09T01:53:01;19.10;99.90
33645;DHT22;19986;48.190;16.366;2022-09-09T01:55:30;19.10;99.90
33645;DHT22;19986;48.190;16.366;2022-09-09T02:00:26;19.10;99.90
33645;DHT22;19986;48.190;16.366;2022-09-09T02:05:37;19.10;99.90
33645;DHT22;19986;48.190;16.366;2022-09-09T02:08:23;19.10;99.90
33645;DHT22;19986;48.190;16.366;2022-09-09T02:13:20;19.10;99.90
33645;DHT22;19986;48.190;16.366;2022-09-09T02:16:13;19.10;99.90
33645;DHT22;19986;48.190;16.366;2022-09-09T02:19:01;19.10;99.90
33645;DHT22;19986;48.190;16.366;2022-09-09T02:21:30;19.10;99.90
33645;DHT22;19986;48.190;16.366;2022-09-09T02:23:59;19.00;99.90
33645;DHT22;19986;48.190;16.366;2022-09-09T02:26:26;19.10;99.90
33645;DHT22;19986;48.190;16.366;2022-09-09T02:28:55;19.00;99.90
33645;DHT22;19986;48.190;16.366;2022-09-09T02:31:24;19.00;99.90
33645;DHT22;19986;48.190;16.366;2022-09-09T02:34:01;19.00;99.90
33645;DHT22;19986;48.190;16.366;2022-09-09T02:36:31;19.00;99.90
33645;DHT22;19986;48.190;16.366;2022-09-09T02:38:59;18.90;99.90
33645;DHT22;19986;48.190;16.366;2022-09-09T02:41:43;18.90;99.90
33645;DHT22;19986;48.190;16.366;2022-09-09T02:44:11;18.90;99.90
33645;DHT22;19986;48.190;16.366;2022-09-09T02:52:04;18.80;99.90
33645;DHT22;19986;48.190;16.366;2022-09-09T02:54:35;18.80;99.90
33645;DHT22;19986;48.190;16.366;2022-09-09T02:57:17;18.80;99.90
33645;DHT22;19986;48.190;16.366;2022-09-09T02:59:45;18.70;99.90
33645;DHT22;19986;48.190;16.366;2022-09-09T03:02:11;18.70;99.90
33645;DHT22;19986;48.190;16.366;2022-09-09T03:04:39;18.70;99.90
33645;DHT22;19986;48.190;16.366;2022-09-09T03:07:05;18.70;99.90
33645;DHT22;19986;48.190;16.366;2022-09-09T03:09:31;18.70;99.90
33645;DHT22;19986;48.190;16.366;2022-09-09T03:11:58;18.70;99.90
33645;DHT22;19986;48.190;16.366;2022-09-09T03:14:24;18.70;99.90
33645;DHT22;19986;48.190;16.366;2022-09-09T03:16:53;18.60;99.90
33645;DHT22;19986;48.190;16.366;2022-09-09T03:19:20;18.60;99.90
33645;DHT22;19986;48.190;16.366;2022-09-09T03:21:47;18.60;99.90
33645;DHT22;19986;48.190;16.366;2022-09-09T03:24:13;18.70;99.90
33645;DHT22;19986;48.190;16.366;2022-09-09T03:26:41;18.70;99.90
33645;DHT22;19986;48.190;16.366;2022-09-09T03:29:11;18.70;99.90
33645;DHT22;19986;48.190;16.366;2022-09-09T03:31:38;18.60;99.90
33645;DHT22;19986;48.190;16.366;2022-09-09T03:34:04;18.70;99.90
33645;DHT22;19986;48.190;16.366;2022-09-09T03:36:31;18.70;99.90
33645;DHT22;19986;48.190;16.366;2022-09-09T03:38:57;18.70;99.90
33645;DHT22;19986;48.190;16.366;2022-09-09T03:41:24;18.70;99.90
33645;DHT22;19986;48.190;16.366;2022-09-09T03:43:53;18.70;99.90
33645;DHT22;19986;48.190;16.366;2022-09-09T03:46:21;18.80;99.90
33645;DHT22;19986;48.190;16.366;2022-09-09T03:48:47;18.80;99.90
33645;DHT22;19986;48.190;16.366;2022-09-09T03:51:14;18.80;99.90
33645;DHT22;19986;48.190;16.366;2022-09-09T03:53:41;18.80;99.90
33645;DHT22;19986;48.190;16.366;2022-09-09T03:56:07;18.80;99.90
33645;DHT22;19986;48.190;16.366;2022-09-09T03:58:34;18.90;99.90
33645;DHT22;19986;48.190;16.366;2022-09-09T04:01:11;18.90;99.90
33645;DHT22;19986;48.190;16.366;2022-09-09T04:03:40;18.80;99.90
33645;DHT22;19986;48.190;16.366;2022-09-09T04:06:08;18.80;99.90
33645;DHT22;19986;48.190;16.366;2022-09-09T04:08:35;18.70;99.90
33645;DHT22;19986;48.190;16.366;2022-09-09T04:11:02;18.80;99.90
33645;DHT22;19986;48.190;16.366;2022-09-09T04:13:32;18.80;99.90
33645;DHT22;19986;48.190;16.366;2022-09-09T04:16:00;18.70;99.90
33645;DHT22;19986;48.190;16.366;2022-09-09T04:18:27;18.80;99.90
33645;DHT22;19986;48.190;16.366;2022-09-09T04:20:57;18.80;99.90
33645;DHT22;19986;48.190;16.366;2022-09-09T04:23:24;18.80;99.90
33645;DHT22;19986;48.190;16.366;2022-09-09T04:25:53;18.70;99.90
33645;DHT22;19986;48.190;16.366;2022-09-09T04:28:21;18.70;99.90
33645;DHT22;19986;48.190;16.366;2022-09-09T04:30:47;18.70;99.90
33645;DHT22;19986;48.190;16.366;2022-09-09T04:33:14;18.70;99.90
33645;DHT22;19986;48.190;16.366;2022-09-09T04:35:47;18.70;99.90
33645;DHT22;19986;48.190;16.366;2022-09-09T04:38:13;18.70;99.90
33645;DHT22;19986;48.190;16.366;2022-09-09T04:40:39;18.70;99.90
33645;DHT22;19986;48.190;16.366;2022-09-09T04:43:09;18.70;99.90
33645;DHT22;19986;48.190;16.366;2022-09-09T04:45:35;18.70;99.90
33645;DHT22;19986;48.190;16.366;2022-09-09T04:48:01;18.80;99.90
33645;DHT22;19986;48.190;16.366;2022-09-09T04:50:28;18.80;99.90
33645;DHT22;19986;48.190;16.366;2022-09-09T04:52:54;18.70;99.90
33645;DHT22;19986;48.190;16.366;2022-09-09T04:55:20;18.70;99.90
33645;DHT22;19986;48.190;16.366;2022-09-09T04:57:46;18.70;99.90
33645;DHT22;19986;48.190;16.366;2022-09-09T05:00:12;18.60;99.90
33645;DHT22;19986;48.190;16.366;2022-09-09T05:02:39;18.60;99.90
33645;DHT22;19986;48.190;16.366;2022-09-09T05:05:06;18.70;99.90
33645;DHT22;19986;48.190;16.366;2022-09-09T05:07:32;18.70;99.90
33645;DHT22;19986;48.190;16.366;2022-09-09T05:09:58;18.60;99.90
33645;DHT22;19986;48.190;16.366;2022-09-09T05:12:24;18.70;99.90
33645;DHT22;19986;48.190;16.366;2022-09-09T05:14:54;18.70;99.90
33645;DHT22;19986;48.190;16.366;2022-09-09T05:17:19;18.60;99.90
33645;DHT22;19986;48.190;16.366;2022-09-09T05:19:45;18.70;99.90
33645;DHT22;19986;48.190;16.366;2022-09-09T05:22:11;18.70;99.90
33645;DHT22;19986;48.190;16.366;2022-09-09T05:24:38;18.70;99.90
33645;DHT22;19986;48.190;16.366;2022-09-09T05:27:04;18.70;99.90
33645;DHT22;19986;48.190;16.366;2022-09-09T05:29:32;18.70;99.90
33645;DHT22;19986;48.190;16.366;2022-09-09T05:31:59;18.70;99.90
33645;DHT22;19986;48.190;16.366;2022-09-09T05:34:25;18.70;99.90
33645;DHT22;19986;48.190;16.366;2022-09-09T05:36:54;18.80;99.90
33645;DHT22;19986;48.190;16.366;2022-09-09T05:39:19;18.80;99.90
33645;DHT22;19986;48.190;16.366;2022-09-09T05:41:45;18.80;99.90
33645;DHT22;19986;48.190;16.366;2022-09-09T05:44:11;18.90;99.90
33645;DHT22;19986;48.190;16.366;2022-09-09T05:46:37;18.90;99.90
33645;DHT22;19986;48.190;16.366;2022-09-09T05:49:03;19.00;99.90
33645;DHT22;19986;48.190;16.366;2022-09-09T05:51:31;19.10;99.90
33645;DHT22;19986;48.190;16.366;2022-09-09T05:53:57;19.20;99.90
33645;DHT22;19986;48.190;16.366;2022-09-09T05:56:27;19.30;99.90
33645;DHT22;19986;48.190;16.366;2022-09-09T05:58:55;19.40;99.90
33645;DHT22;19986;48.190;16.366;2022-09-09T06:01:23;19.40;99.90
33645;DHT22;19986;48.190;16.366;2022-09-09T06:03:51;19.40;99.90
33645;DHT22;19986;48.190;16.366;2022-09-09T06:06:23;19.50;99.90
33645;DHT22;19986;48.190;16.366;2022-09-09T06:08:52;19.50;99.90
33645;DHT22;19986;48.190;16.366;2022-09-09T06:11:21;19.50;99.90
33645;DHT22;19986;48.190;16.366;2022-09-09T06:13:47;19.60;99.90
33645;DHT22;19986;48.190;16.366;2022-09-09T06:16:15;19.50;99.90
33645;DHT22;19986;48.190;16.366;2022-09-09T06:18:42;19.50;99.90
33645;DHT22;19986;48.190;16.366;2022-09-09T06:21:18;19.60;99.90
33645;DHT22;19986;48.190;16.366;2022-09-09T06:23:45;19.70;99.90
33645;DHT22;19986;48.190;16.366;2022-09-09T06:26:13;19.80;99.90
33645;DHT22;19986;48.190;16.366;2022-09-09T06:28:40;19.90;99.90
33645;DHT22;19986;48.190;16.366;2022-09-09T06:31:09;19.90;99.90
33645;DHT22;19986;48.190;16.366;2022-09-09T06:33:37;19.80;99.90
33645;DHT22;19986;48.190;16.366;2022-09-09T06:36:17;19.80;99.90
33645;DHT22;19986;48.190;16.366;2022-09-09T06:38:46;19.80;99.90
33645;DHT22;19986;48.190;16.366;2022-09-09T06:41:14;19.90;99.90
33645;DHT22;19986;48.190;16.366;2022-09-09T06:43:40;20.00;99.90
33645;DHT22;19986;48.190;16.366;2022-09-09T06:46:10;20.10;99.90
33645;DHT22;19986;48.190;16.366;2022-09-09T06:48:38;20.40;99.90
33645;DHT22;19986;48.190;16.366;2022-09-09T06:53:41;21.00;99.90
33645;DHT22;19986;48.190;16.366;2022-09-09T06:58:42;21.40;99.90
33645;DHT22;19986;48.190;16.366;2022-09-09T07:01:12;21.50;99.90
33645;DHT22;19986;48.190;16.366;2022-09-09T07:03:42;21.60;99.90
33645;DHT22;19986;48.190;16.366;2022-09-09T07:06:24;21.70;99.90
33645;DHT22;19986;48.190;16.366;2022-09-09T07:09:02;21.80;99.90
33645;DHT22;19986;48.190;16.366;2022-09-09T07:11:31;22.00;99.90
33645;DHT22;19986;48.190;16.366;2022-09-09T07:13:58;22.00;99.90
33645;DHT22;19986;48.190;16.366;2022-09-09T07:16:25;22.20;99.90
33645;DHT22;19986;48.190;16.366;2022-09-09T07:18:53;22.20;99.90
33645;DHT22;19986;48.190;16.366;2022-09-09T07:21:25;22.20;99.90
33645;DHT22;19986;48.190;16.366;2022-09-09T07:23:52;22.10;99.90
33645;DHT22;19986;48.190;16.366;2022-09-09T07:26:21;22.00;99.90
33645;DHT22;19986;48.190;16.366;2022-09-09T07:28:48;22.00;99.90
33645;DHT22;19986;48.190;16.366;2022-09-09T07:31:21;22.00;99.90
33645;DHT22;19986;48.190;16.366;2022-09-09T07:33:48;22.00;99.90
33645;DHT22;19986;48.190;16.366;2022-09-09T07:36:26;22.10;99.90
33645;DHT22;19986;48.190;16.366;2022-09-09T07:38:58;22.30;99.90
33645;DHT22;19986;48.190;16.366;2022-09-09T07:41:30;22.30;99.90
33645;DHT22;19986;48.190;16.366;2022-09-09T07:43:57;22.30;99.90
33645;DHT22;19986;48.190;16.366;2022-09-09T07:46:25;22.30;99.90
33645;DHT22;19986;48.190;16.366;2022-09-09T07:48:54;22.20;99.90
33645;DHT22;19986;48.190;16.366;2022-09-09T07:53:51;22.40;99.90
33645;DHT22;19986;48.190;16.366;2022-09-09T07:56:18;22.60;99.90
33645;DHT22;19986;48.190;16.366;2022-09-09T07:58:48;22.80;99.90
33645;DHT22;19986;48.190;16.366;2022-09-09T08:01:17;23.00;99.90
33645;DHT22;19986;48.190;16.366;2022-09-09T08:03:44;23.10;99.90
33645;DHT22;19986;48.190;16.366;2022-09-09T08:06:12;23.20;99.90
33645;DHT22;19986;48.190;16.366;2022-09-09T08:08:40;23.30;99.90
33645;DHT22;19986;48.190;16.366;2022-09-09T08:11:08;23.60;99.90
33645;DHT22;19986;48.190;16.366;2022-09-09T08:13:36;23.90;99.90
33645;DHT22;19986;48.190;16.366;2022-09-09T08:16:22;24.10;99.90
33645;DHT22;19986;48.190;16.366;2022-09-09T08:18:49;24.30;99.90
33645;DHT22;19986;48.190;16.366;2022-09-09T08:21:18;24.40;99.90
33645;DHT22;19986;48.190;16.366;2022-09-09T08:23:46;24.50;99.90
33645;DHT22;19986;48.190;16.366;2022-09-09T08:26:15;24.60;99.90
33645;DHT22;19986;48.190;16.366;2022-09-09T08:28:42;24.70;99.90
33645;DHT22;19986;48.190;16.366;2022-09-09T08:31:14;24.90;99.90
33645;DHT22;19986;48.190;16.366;2022-09-09T08:33:43;24.90;99.90
33645;DHT22;19986;48.190;16.366;2022-09-09T08:36:20;25.10;99.90
33645;DHT22;19986;48.190;16.366;2022-09-09T08:38:54;25.00;99.90
33645;DHT22;19986;48.190;16.366;2022-09-09T08:41:44;25.00;99.90
33645;DHT22;19986;48.190;16.366;2022-09-09T08:53:16;24.70;99.90
33645;DHT22;19986;48.190;16.366;2022-09-09T08:58:15;24.50;99.90
33645;DHT22;19986;48.190;16.366;2022-09-09T09:11:47;24.70;99.90
33645;DHT22;19986;48.190;16.366;2022-09-09T09:14:27;24.80;99.90
33645;DHT22;19986;48.190;16.366;2022-09-09T09:19:23;24.70;99.90
33645;DHT22;19986;48.190;16.366;2022-09-09T09:24:30;24.70;99.90
33645;DHT22;19986;48.190;16.366;2022-09-09T09:27:14;24.90;99.90
33645;DHT22;19986;48.190;16.366;2022-09-09T09:29:41;25.10;99.90
33645;DHT22;19986;48.190;16.366;2022-09-09T09:32:13;25.20;99.90
33645;DHT22;19986;48.190;16.366;2022-09-09T09:34:40;25.20;99.90
33645;DHT22;19986;48.190;16.366;2022-09-09T09:37:29;25.40;99.90
33645;DHT22;19986;48.190;16.366;2022-09-09T09:39:55;25.40;99.90
33645;DHT22;19986;48.190;16.366;2022-09-09T09:42:22;25.50;99.90
33645;DHT22;19986;48.190;16.366;2022-09-09T09:44:48;25.60;99.90
33645;DHT22;19986;48.190;16.366;2022-09-09T09:47:20;25.70;99.90
33645;DHT22;19986;48.190;16.366;2022-09-09T09:50:00;25.80;99.90
33645;DHT22;19986;48.190;16.366;2022-09-09T09:52:29;25.90;99.90
33645;DHT22;19986;48.190;16.366;2022-09-09T09:54:57;26.00;99.90
33645;DHT22;19986;48.190;16.366;2022-09-09T09:57:29;26.00;99.90
33645;DHT22;19986;48.190;16.366;2022-09-09T10:00:16;26.10;99.90
33645;DHT22;19986;48.190;16.366;2022-09-09T10:02:44;26.20;99.90
33645;DHT22;19986;48.190;16.366;2022-09-09T10:05:20;26.20;99.90
33645;DHT22;19986;48.190;16.366;2022-09-09T10:07:47;26.20;99.90
33645;DHT22;19986;48.190;16.366;2022-09-09T10:10:23;26.20;99.90
33645;DHT22;19986;48.190;16.366;2022-09-09T10:13:02;26.30;99.90
33645;DHT22;19986;48.190;16.366;2022-09-09T10:32:41;26.90;99.90
33645;DHT22;19986;48.190;16.366;2022-09-09T10:38:26;26.70;99.90
33645;DHT22;19986;48.190;16.366;2022-09-09T10:59:57;28.30;99.90
33645;DHT22;19986;48.190;16.366;2022-09-09T11:02:29;28.60;99.90
33645;DHT22;19986;48.190;16.366;2022-09-09T11:05:10;28.60;99.90
33645;DHT22;19986;48.190;16.366;2022-09-09T11:08:11;28.70;99.90
33645;DHT22;19986;48.190;16.366;2022-09-09T11:13:15;28.40;99.90
33645;DHT22;19986;48.190;16.366;2022-09-09T11:15:48;28.10;99.90
33645;DHT22;19986;48.190;16.366;2022-09-09T11:18:20;27.90;99.90
33645;DHT22;19986;48.190;16.366;2022-09-09T11:20:52;27.80;99.90
33645;DHT22;19986;48.190;16.366;2022-09-09T11:26:05;28.00;99.90
33645;DHT22;19986;48.190;16.366;2022-09-09T11:41:49;28.70;98.30
33645;DHT22;19986;48.190;16.366;2022-09-09T11:44:28;28.60;98.10
33645;DHT22;19986;48.190;16.366;2022-09-09T11:46:55;28.70;98.10
33645;DHT22;19986;48.190;16.366;2022-09-09T11:49:29;28.80;98.10
33645;DHT22;19986;48.190;16.366;2022-09-09T11:51:57;28.80;97.60
33645;DHT22;19986;48.190;16.366;2022-09-09T11:54:30;29.00;97.30
33645;DHT22;19986;48.190;16.366;2022-09-09T11:56:56;29.10;96.80
33645;DHT22;19986;48.190;16.366;2022-09-09T11:59:27;29.10;96.80
33645;DHT22;19986;48.190;16.366;2022-09-09T12:01:59;29.10;96.50
33645;DHT22;19986;48.190;16.366;2022-09-09T12:04:33;28.90;96.20
33645;DHT22;19986;48.190;16.366;2022-09-09T12:09:47;28.60;96.80
33645;DHT22;19986;48.190;16.366;2022-09-09T12:15:02;28.60;96.10
33645;DHT22;19986;48.190;16.366;2022-09-09T12:17:30;28.50;96.10
33645;DHT22;19986;48.190;16.366;2022-09-09T12:20:10;28.40;96.10
33645;DHT22;19986;48.190;16.366;2022-09-09T12:26:01;28.90;96.20
33645;DHT22;19986;48.190;16.366;2022-09-09T12:29:49;29.40;95.20
33645;DHT22;19986;48.190;16.366;2022-09-09T12:32:19;29.40;94.50
33645;DHT22;19986;48.190;16.366;2022-09-09T12:34:59;29.30;94.10
33645;DHT22;19986;48.190;16.366;2022-09-09T12:40:00;28.90;94.40
33645;DHT22;19986;48.190;16.366;2022-09-09T12:42:28;28.80;94.30
33645;DHT22;19986;48.190;16.366;2022-09-09T12:45:02;28.60;94.40
33645;DHT22;19986;48.190;16.366;2022-09-09T12:50:31;28.40;94.50
33645;DHT22;19986;48.190;16.366;2022-09-09T12:53:24;28.20;94.50
33645;DHT22;19986;48.190;16.366;2022-09-09T12:55:56;28.10;94.50
33645;DHT22;19986;48.190;16.366;2022-09-09T12:58:22;27.90;94.80
33645;DHT22;19986;48.190;16.366;2022-09-09T13:00:50;27.80;94.70
33645;DHT22;19986;48.190;16.366;2022-09-09T13:03:20;27.70;94.60
33645;DHT22;19986;48.190;16.366;2022-09-09T13:05:51;27.70;95.00
33645;DHT22;19986;48.190;16.366;2022-09-09T13:08:17;27.60;95.40
33645;DHT22;19986;48.190;16.366;2022-09-09T13:10:50;27.50;95.50
33645;DHT22;19986;48.190;16.366;2022-09-09T13:13:27;27.50;95.50
33645;DHT22;19986;48.190;16.366;2022-09-09T13:16:00;27.40;95.50
33645;DHT22;19986;48.190;16.366;2022-09-09T13:18:32;27.30;95.70
33645;DHT22;19986;48.190;16.366;2022-09-09T13:20:59;27.30;95.90
33645;DHT22;19986;48.190;16.366;2022-09-09T13:23:33;27.40;95.90
33645;DHT22;19986;48.190;16.366;2022-09-09T13:26:03;27.30;95.90
33645;DHT22;19986;48.190;16.366;2022-09-09T13:28:31;27.40;95.80
33645;DHT22;19986;48.190;16.366;2022-09-09T13:31:05;27.30;95.80
33645;DHT22;19986;48.190;16.366;2022-09-09T13:33:37;27.10;95.60
33645;DHT22;19986;48.190;16.366;2022-09-09T13:36:08;27.10;95.70
33645;DHT22;19986;48.190;16.366;2022-09-09T13:39:02;27.10;95.80
33645;DHT22;19986;48.190;16.366;2022-09-09T13:41:33;27.10;95.70
33645;DHT22;19986;48.190;16.366;2022-09-09T13:44:01;27.00;95.50
33645;DHT22;19986;48.190;16.366;2022-09-09T13:51:38;26.60;95.40
33645;DHT22;19986;48.190;16.366;2022-09-09T13:54:06;26.50;95.90
33645;DHT22;19986;48.190;16.366;2022-09-09T13:56:33;26.40;96.00
33645;DHT22;19986;48.190;16.366;2022-09-09T13:58:59;26.30;96.10
33645;DHT22;19986;48.190;16.366;2022-09-09T14:01:27;26.30;96.40
33645;DHT22;19986;48.190;16.366;2022-09-09T14:03:53;26.30;96.60
33645;DHT22;19986;48.190;16.366;2022-09-09T14:06:19;26.20;96.50
33645;DHT22;19986;48.190;16.366;2022-09-09T14:08:50;26.20;96.50
33645;DHT22;19986;48.190;16.366;2022-09-09T14:11:17;26.10;96.50
33645;DHT22;19986;48.190;16.366;2022-09-09T14:13:43;26.10;96.40
33645;DHT22;19986;48.190;16.366;2022-09-09T14:16:09;26.10;96.30
33645;DHT22;19986;48.190;16.366;2022-09-09T14:18:36;26.00;96.30
33645;DHT22;19986;48.190;16.366;2022-09-09T14:21:03;25.90;96.20
33645;DHT22;19986;48.190;16.366;2022-09-09T14:23:29;25.80;96.20
33645;DHT22;19986;48.190;16.366;2022-09-09T14:25:55;25.60;96.00
33645;DHT22;19986;48.190;16.366;2022-09-09T14:28:21;25.60;95.80
33645;DHT22;19986;48.190;16.366;2022-09-09T14:30:47;25.60;96.20
33645;DHT22;19986;48.190;16.366;2022-09-09T14:33:15;25.60;97.20
33645;DHT22;19986;48.190;16.366;2022-09-09T14:35:42;25.50;99.80
33645;DHT22;19986;48.190;16.366;2022-09-09T14:38:08;25.40;99.90
33645;DHT22;19986;48.190;16.366;2022-09-09T14:40:37;25.20;99.90
33645;DHT22;19986;48.190;16.366;2022-09-09T14:43:04;25.10;99.90
33645;DHT22;19986;48.190;16.366;2022-09-09T14:45:31;25.00;99.90
33645;DHT22;19986;48.190;16.366;2022-09-09T14:47:57;24.90;99.90
33645;DHT22;19986;48.190;16.366;2022-09-09T14:50:23;24.90;99.90
33645;DHT22;19986;48.190;16.366;2022-09-09T14:52:49;24.90;99.90
33645;DHT22;19986;48.190;16.366;2022-09-09T14:55:16;24.80;99.90
33645;DHT22;19986;48.190;16.366;2022-09-09T14:57:42;24.70;99.90
33645;DHT22;19986;48.190;16.366;2022-09-09T15:00:09;24.80;99.90
33645;DHT22;19986;48.190;16.366;2022-09-09T15:02:36;24.70;99.90
33645;DHT22;19986;48.190;16.366;2022-09-09T15:05:02;24.70;99.90
33645;DHT22;19986;48.190;16.366;2022-09-09T15:07:29;24.80;99.90
33645;DHT22;19986;48.190;16.366;2022-09-09T15:09:57;24.70;99.90
33645;DHT22;19986;48.190;16.366;2022-09-09T15:12:24;24.70;99.90
33645;DHT22;19986;48.190;16.366;2022-09-09T15:14:50;24.60;99.90
33645;DHT22;19986;48.190;16.366;2022-09-09T15:17:16;24.70;99.90
33645;DHT22;19986;48.190;16.366;2022-09-09T15:19:42;24.70;99.90
33645;DHT22;19986;48.190;16.366;2022-09-09T15:22:08;24.70;99.90
33645;DHT22;19986;48.190;16.366;2022-09-09T15:24:34;24.80;99.90
33645;DHT22;19986;48.190;16.366;2022-09-09T15:27:01;24.70;99.90
33645;DHT22;19986;48.190;16.366;2022-09-09T15:29:27;24.80;99.90
33645;DHT22;19986;48.190;16.366;2022-09-09T15:31:54;24.70;99.90
33645;DHT22;19986;48.190;16.366;2022-09-09T15:34:20;24.60;99.90
33645;DHT22;19986;48.190;16.366;2022-09-09T15:36:46;24.60;99.90
33645;DHT22;19986;48.190;16.366;2022-09-09T15:39:15;24.50;99.90
33645;DHT22;19986;48.190;16.366;2022-09-09T15:41:45;24.40;99.90
33645;DHT22;19986;48.190;16.366;2022-09-09T15:44:11;24.40;99.90
33645;DHT22;19986;48.190;16.366;2022-09-09T15:46:39;24.30;99.90
33645;DHT22;19986;48.190;16.366;2022-09-09T15:49:10;24.30;99.90
33645;DHT22;19986;48.190;16.366;2022-09-09T15:51:38;24.10;99.90
33645;DHT22;19986;48.190;16.366;2022-09-09T15:54:05;24.10;99.90
33645;DHT22;19986;48.190;16.366;2022-09-09T15:56:31;24.00;99.90
33645;DHT22;19986;48.190;16.366;2022-09-09T15:58:59;24.00;99.90
33645;DHT22;19986;48.190;16.366;2022-09-09T16:01:26;23.90;99.90
33645;DHT22;19986;48.190;16.366;2022-09-09T16:03:52;23.90;99.90
33645;DHT22;19986;48.190;16.366;2022-09-09T16:06:21;23.90;99.90
33645;DHT22;19986;48.190;16.366;2022-09-09T16:08:49;23.80;99.90
33645;DHT22;19986;48.190;16.366;2022-09-09T16:11:30;23.80;99.90
33645;DHT22;19986;48.190;16.366;2022-09-09T16:13:56;23.80;99.90
33645;DHT22;19986;48.190;16.366;2022-09-09T16:16:25;23.70;99.90
33645;DHT22;19986;48.190;16.366;2022-09-09T16:18:53;23.60;99.90
33645;DHT22;19986;48.190;16.366;2022-09-09T16:23:46;23.60;99.90
33645;DHT22;19986;48.190;16.366;2022-09-09T16:26:13;23.60;99.90
33645;DHT22;19986;48.190;16.366;2022-09-09T16:28:40;23.50;99.90
33645;DHT22;19986;48.190;16.366;2022-09-09T16:31:08;23.50;99.90
33645;DHT22;19986;48.190;16.366;2022-09-09T16:33:36;23.40;99.90
33645;DHT22;19986;48.190;16.366;2022-09-09T16:36:26;23.30;99.90
33645;DHT22;19986;48.190;16.366;2022-09-09T16:38:59;23.30;99.90
33645;DHT22;19986;48.190;16.366;2022-09-09T16:41:26;23.20;99.90
33645;DHT22;19986;48.190;16.366;2022-09-09T16:43:57;23.10;99.90
33645;DHT22;19986;48.190;16.366;2022-09-09T16:46:24;23.10;99.90
33645;DHT22;19986;48.190;16.366;2022-09-09T16:48:50;23.00;99.90
33645;DHT22;19986;48.190;16.366;2022-09-09T16:53:43;23.00;99.90
33645;DHT22;19986;48.190;16.366;2022-09-09T16:56:12;22.90;99.90
33645;DHT22;19986;48.190;16.366;2022-09-09T16:58:38;22.80;99.90
33645;DHT22;19986;48.190;16.366;2022-09-09T17:01:04;22.80;99.90
33645;DHT22;19986;48.190;16.366;2022-09-09T17:03:31;22.70;99.90
33645;DHT22;19986;48.190;16.366;2022-09-09T17:05:58;22.70;99.90
33645;DHT22;19986;48.190;16.366;2022-09-09T17:08:30;22.60;99.90
33645;DHT22;19986;48.190;16.366;2022-09-09T17:10:57;22.50;99.90
33645;DHT22;19986;48.190;16.366;2022-09-09T17:13:23;22.30;99.90
33645;DHT22;19986;48.190;16.366;2022-09-09T17:15:50;22.20;99.90
33645;DHT22;19986;48.190;16.366;2022-09-09T17:18:16;22.10;99.90
33645;DHT22;19986;48.190;16.366;2022-09-09T17:20:43;22.10;99.90
33645;DHT22;19986;48.190;16.366;2022-09-09T17:23:10;22.00;99.90
33645;DHT22;19986;48.190;16.366;2022-09-09T17:25:37;21.90;99.90
33645;DHT22;19986;48.190;16.366;2022-09-09T17:28:04;21.80;99.90
33645;DHT22;19986;48.190;16.366;2022-09-09T17:30:33;21.70;99.90
33645;DHT22;19986;48.190;16.366;2022-09-09T17:33:00;21.60;99.90
33645;DHT22;19986;48.190;16.366;2022-09-09T17:35:26;21.50;99.90
33645;DHT22;19986;48.190;16.366;2022-09-09T17:37:53;21.30;99.90
33645;DHT22;19986;48.190;16.366;2022-09-09T17:40:23;21.10;99.90
33645;DHT22;19986;48.190;16.366;2022-09-09T17:42:49;21.00;99.90
33645;DHT22;19986;48.190;16.366;2022-09-09T17:45:14;20.90;99.90
33645;DHT22;19986;48.190;16.366;2022-09-09T17:47:41;20.90;99.90
33645;DHT22;19986;48.190;16.366;2022-09-09T17:50:09;20.80;99.90
33645;DHT22;19986;48.190;16.366;2022-09-09T17:52:39;20.70;99.90
33645;DHT22;19986;48.190;16.366;2022-09-09T17:55:07;20.60;99.90
33645;DHT22;19986;48.190;16.366;2022-09-09T17:57:34;20.50;99.90
33645;DHT22;19986;48.190;16.366;2022-09-09T18:00:01;20.50;99.90
33645;DHT22;19986;48.190;16.366;2022-09-09T18:02:27;20.50;99.90
33645;DHT22;19986;48.190;16.366;2022-09-09T18:04:52;20.50;99.90
33645;DHT22;19986;48.190;16.366;2022-09-09T18:07:19;20.50;99.90
33645;DHT22;19986;48.190;16.366;2022-09-09T18:09:44;20.40;99.90
33645;DHT22;19986;48.190;16.366;2022-09-09T18:12:11;20.50;99.90
33645;DHT22;19986;48.190;16.366;2022-09-09T18:14:37;20.50;99.90
33645;DHT22;19986;48.190;16.366;2022-09-09T18:17:03;20.50;99.90
33645;DHT22;19986;48.190;16.366;2022-09-09T18:19:30;20.40;99.90
33645;DHT22;19986;48.190;16.366;2022-09-09T18:21:57;20.40;99.90
33645;DHT22;19986;48.190;16.366;2022-09-09T18:24:23;20.50;99.90
33645;DHT22;19986;48.190;16.366;2022-09-09T18:26:50;20.60;99.90